Brookshire, TX

02:53 AM CDT del 31 Agosto 2016 (GMT -0500)
Houston | | Change Station

Alt. 167 ft 29.81 °N, 95.90 °W | Updated 18 minutes ago

Mostly Cloudy
Molto nuvoloso
75 °F
Sembra 75 °F
N
0
Vento Variabile Vento da Nord
Gusts mph

Oggi
Massima -- | Minima -- °F
--% Possibilità di precip.
Ieri
Massima -- | Minima -- °F
Precip. -- in
Pressione 29.95 in
Visibilità 10.0 miglia
Nuvole
Punto di rugiada 75 °F
Umidità 100%
Piovosità 0.00 in
Spessore del manto nevoso Non disponibile.
7:00 AM 7:46 PM
Luna calante, 1% visible
METAR KTME 310735Z AUTO 00000KT 10SM 24/24 A2995 RMK AO2
Pressione 29.95 in
Visibilità 10.0 miglia
Nuvole
Punto di rugiada 75 °F
Umidità 100%
Piovosità 0.00 in
Spessore del manto nevoso Non disponibile.
7:00 AM 7:46 PM
Luna calante, 1% visible
METAR KTME 310735Z AUTO 00000KT 10SM 24/24 A2995 RMK AO2

10-Day Weather Forecast

Almanac

Astronomia

Aug. 31, 2016 Alba Tramonto
Ora attuale
Crepuscolo civile
Crepuscolo nautico
Crepuscolo astronomico
Luna
Estensione della luce visibile
Lunghezza del giorno
Tomorrow will be .
, % of the Moon is Illuminated

Gli estremi di oggi

State Highs State Lows

Community

WunderPhotos

Upload Photos

1,936,038 foto caricate!

WunderBlog® & News

Nearby

Qualità dell'aria

  Qualità dell'aria Indice AQ Inquinante
Not available.

Profondità neve

Stazione Profondità Altitudine

Attività sismica

Città  Distanza Mag. Data & Ora
Minimo Magnitudo Mostrato è 2.5.

Temperature delle acque costiere

Località Temperatura

Stations

Stazioni meteo nelle vicinanze

Ubicazione della stazione Temp. Raffreddamento del vento Punto di rugiada Umidità Vento Precip. Alt. Aggiornato Tipo
                   

Watches & Warnings

There are currently no watches in effect.